createdAt,value
2022-07-25T00:02:02.133Z,5.13
2022-07-25T00:04:29.741Z,4.90
2022-07-25T00:06:57.284Z,5.70
2022-07-25T00:09:27.612Z,4.93
2022-07-25T00:11:55.090Z,4.80
2022-07-25T00:14:22.796Z,5.13
2022-07-25T00:16:50.342Z,4.97
2022-07-25T00:19:17.781Z,5.13
2022-07-25T00:21:45.868Z,4.97
2022-07-25T00:24:13.298Z,5.10
2022-07-25T00:26:40.782Z,5.03
2022-07-25T00:29:08.347Z,5.23
2022-07-25T00:31:35.986Z,5.00
2022-07-25T00:34:04.381Z,4.80
2022-07-25T00:36:32.021Z,5.50
2022-07-25T00:38:59.486Z,5.10
2022-07-25T00:41:26.835Z,5.43
2022-07-25T00:43:55.048Z,5.13
2022-07-25T00:46:22.841Z,4.83
2022-07-25T00:48:54.233Z,5.40
2022-07-25T00:51:22.222Z,5.13
2022-07-25T00:53:49.606Z,5.17
2022-07-25T00:56:17.496Z,5.30
2022-07-25T00:58:45.949Z,4.87
2022-07-25T01:01:13.563Z,4.87
2022-07-25T01:03:41.214Z,4.97
2022-07-25T01:06:09.409Z,5.43
2022-07-25T01:08:38.483Z,5.23
2022-07-25T01:11:08.976Z,5.30
2022-07-25T01:13:36.532Z,4.53
2022-07-25T01:16:04.197Z,5.10
2022-07-25T01:18:32.219Z,5.67
2022-07-25T01:20:59.746Z,5.17
2022-07-25T01:23:28.056Z,5.47
2022-07-25T01:25:55.415Z,5.20
2022-07-25T01:28:23.049Z,5.10
2022-07-25T01:30:50.558Z,5.20
2022-07-25T01:33:19.582Z,5.37
2022-07-25T01:35:47.709Z,5.20
2022-07-25T01:38:16.457Z,5.33
2022-07-25T01:40:44.834Z,5.30
2022-07-25T01:43:13.053Z,5.00
2022-07-25T01:45:40.444Z,5.13
2022-07-25T01:48:08.443Z,5.47
2022-07-25T01:50:35.731Z,5.37
2022-07-25T01:53:03.898Z,5.40
2022-07-25T01:55:31.397Z,5.57
2022-07-25T01:58:00.641Z,5.27
2022-07-25T02:00:28.325Z,5.57
2022-07-25T02:03:16.463Z,5.23
2022-07-25T02:05:44.039Z,5.23
2022-07-25T02:08:11.397Z,5.60
2022-07-25T02:10:38.942Z,5.40
2022-07-25T02:13:07.337Z,5.50
2022-07-25T02:15:36.578Z,6.07
2022-07-25T02:18:05.144Z,5.90
2022-07-25T02:20:32.573Z,5.90
2022-07-25T02:23:00.077Z,5.67
2022-07-25T02:25:27.594Z,5.80
2022-07-25T02:27:55.383Z,5.90
2022-07-25T02:30:23.087Z,5.67
2022-07-25T02:32:50.608Z,5.87
2022-07-25T02:35:18.364Z,5.83
2022-07-25T02:37:45.857Z,5.77
2022-07-25T02:40:13.825Z,5.80
2022-07-25T02:42:41.852Z,6.10
2022-07-25T02:45:10.150Z,5.53
2022-07-25T02:47:37.666Z,5.97
2022-07-25T02:50:05.917Z,5.67
2022-07-25T02:52:33.187Z,5.67
2022-07-25T02:55:04.855Z,6.40
2022-07-25T02:57:36.733Z,5.97
2022-07-25T03:00:06.436Z,5.80
2022-07-25T03:02:33.823Z,5.80
2022-07-25T03:05:01.116Z,5.60
2022-07-25T03:07:28.524Z,6.07
2022-07-25T03:09:55.854Z,5.60
2022-07-25T03:12:23.311Z,5.73
2022-07-25T03:14:50.865Z,5.87
2022-07-25T03:17:18.615Z,5.70
2022-07-25T03:19:46.307Z,6.30
2022-07-25T03:22:13.782Z,6.07
2022-07-25T03:24:41.595Z,5.73
2022-07-25T03:27:09.135Z,5.60
2022-07-25T03:29:36.836Z,6.23
2022-07-25T03:32:04.965Z,6.10
2022-07-25T03:34:32.299Z,5.83
2022-07-25T03:37:00.684Z,6.13
2022-07-25T03:39:28.156Z,6.07
2022-07-25T03:41:56.298Z,6.10
2022-07-25T03:44:25.277Z,5.97
2022-07-25T03:46:52.872Z,5.83
2022-07-25T03:49:20.224Z,6.17
2022-07-25T03:51:47.756Z,6.00
2022-07-25T03:54:15.488Z,5.67
2022-07-25T03:56:45.633Z,5.20
2022-07-25T03:59:18.015Z,5.83
2022-07-25T04:01:47.832Z,5.67
2022-07-25T04:04:16.350Z,5.53
2022-07-25T04:06:44.364Z,5.80
2022-07-25T04:09:12.626Z,6.27
2022-07-25T04:11:40.395Z,6.23
2022-07-25T04:14:08.617Z,5.90
2022-07-25T04:16:37.064Z,6.10
2022-07-25T04:19:08.679Z,5.60
2022-07-25T04:21:36.374Z,5.87
2022-07-25T04:24:04.242Z,5.80
2022-07-25T04:26:32.035Z,6.00
2022-07-25T04:29:04.066Z,5.90
2022-07-25T04:31:31.692Z,5.67
2022-07-25T04:33:59.409Z,5.90
2022-07-25T04:36:27.307Z,6.03
2022-07-25T04:38:54.831Z,5.93
2022-07-25T04:41:22.654Z,5.40
2022-07-25T04:43:50.363Z,5.47
2022-07-25T04:46:22.259Z,5.27
2022-07-25T04:48:50.754Z,5.60
2022-07-25T04:51:18.881Z,5.67
2022-07-25T04:53:46.756Z,5.80
2022-07-25T04:56:14.098Z,5.60
2022-07-25T04:58:41.842Z,5.93
2022-07-25T05:01:09.299Z,5.57
2022-07-25T05:03:36.724Z,5.80
2022-07-25T05:06:04.366Z,5.73
2022-07-25T05:08:32.009Z,5.57
2022-07-25T05:10:59.372Z,5.47
2022-07-25T05:13:26.880Z,5.70
2022-07-25T05:15:54.235Z,5.53
2022-07-25T05:18:22.390Z,5.73
2022-07-25T05:20:49.798Z,5.83
2022-07-25T05:23:17.379Z,5.93
2022-07-25T05:25:44.704Z,5.40
2022-07-25T05:28:12.445Z,5.80
2022-07-25T05:30:41.823Z,5.63
2022-07-25T05:33:09.434Z,5.53
2022-07-25T05:35:37.196Z,5.93
2022-07-25T05:38:05.375Z,5.80
2022-07-25T05:40:32.781Z,6.10
2022-07-25T05:43:03.203Z,5.63
2022-07-25T05:45:32.152Z,5.43
2022-07-25T05:47:59.433Z,5.97
2022-07-25T05:50:27.195Z,5.43
2022-07-25T05:52:54.544Z,6.00
2022-07-25T05:55:22.063Z,6.40
2022-07-25T05:57:49.385Z,5.93
2022-07-25T06:00:17.163Z,6.40
2022-07-25T06:02:44.492Z,5.83
2022-07-25T06:05:12.288Z,6.70
2022-07-25T06:07:40.114Z,5.57
2022-07-25T06:10:07.985Z,6.10
2022-07-25T06:12:36.602Z,6.00
2022-07-25T06:15:06.009Z,6.53
2022-07-25T06:17:34.540Z,6.20
2022-07-25T06:20:02.244Z,5.67
2022-07-25T06:22:30.977Z,6.33
2022-07-25T06:25:03.386Z,6.43
2022-07-25T06:27:30.980Z,5.63
2022-07-25T06:29:58.674Z,6.17
2022-07-25T06:32:26.710Z,6.47
2022-07-25T06:34:54.889Z,6.43
2022-07-25T06:37:22.361Z,6.30
2022-07-25T06:39:49.779Z,6.50
2022-07-25T06:42:17.288Z,5.53
2022-07-25T06:44:44.598Z,6.40
2022-07-25T06:47:14.800Z,7.00
2022-07-25T06:49:43.133Z,6.20
2022-07-25T06:52:10.788Z,6.90
2022-07-25T06:54:38.246Z,6.33
2022-07-25T06:57:05.950Z,6.13
2022-07-25T06:59:34.443Z,5.57
2022-07-25T07:02:02.501Z,5.30
2022-07-25T07:04:30.382Z,6.00
2022-07-25T07:06:57.782Z,6.20
2022-07-25T07:09:26.052Z,6.03
2022-07-25T07:11:53.302Z,6.50
2022-07-25T07:14:20.846Z,6.03
2022-07-25T07:16:48.234Z,5.93
2022-07-25T07:19:17.805Z,5.97
2022-07-25T07:21:45.946Z,5.97
2022-07-25T07:24:24.041Z,6.10
2022-07-25T07:26:52.843Z,5.93
2022-07-25T07:29:20.325Z,5.77
2022-07-25T07:31:47.861Z,6.07
2022-07-25T07:34:16.414Z,5.80
2022-07-25T07:36:44.665Z,6.17
2022-07-25T07:39:12.745Z,6.57
2022-07-25T07:41:40.278Z,6.13
2022-07-25T07:44:07.844Z,6.47
2022-07-25T07:46:35.537Z,6.23
2022-07-25T07:49:03.082Z,6.13
2022-07-25T07:51:31.165Z,5.83
2022-07-25T07:54:16.720Z,6.47
2022-07-25T07:56:46.042Z,6.30
2022-07-25T07:59:13.379Z,6.23
2022-07-25T08:01:40.919Z,6.30
2022-07-25T08:04:08.405Z,6.50
2022-07-25T08:06:35.934Z,6.20
2022-07-25T08:09:03.706Z,6.90
2022-07-25T08:11:31.475Z,6.17
2022-07-25T08:13:58.951Z,6.20
2022-07-25T08:16:29.702Z,6.83
2022-07-25T08:18:57.402Z,5.97
2022-07-25T08:21:25.088Z,6.27
2022-07-25T08:23:52.487Z,6.33
2022-07-25T08:26:19.826Z,6.50
2022-07-25T08:28:52.572Z,6.60
2022-07-25T08:31:28.426Z,7.10
2022-07-25T08:33:56.076Z,6.63
2022-07-25T08:36:23.760Z,6.70
2022-07-25T08:38:51.388Z,6.73
2022-07-25T08:41:18.789Z,7.40
2022-07-25T08:43:52.712Z,6.97
2022-07-25T08:46:20.209Z,6.97
2022-07-25T08:48:48.353Z,6.33
2022-07-25T08:51:16.461Z,6.10
2022-07-25T08:53:44.318Z,6.73
2022-07-25T08:56:20.815Z,7.00
2022-07-25T08:58:50.077Z,6.43
2022-07-25T09:01:17.453Z,6.80
2022-07-25T09:03:45.554Z,6.30
2022-07-25T09:06:22.717Z,6.27
2022-07-25T09:08:58.196Z,6.13
2022-07-25T09:11:37.961Z,5.87
2022-07-25T09:14:08.318Z,6.30
2022-07-25T09:16:40.414Z,6.43
2022-07-25T09:19:16.356Z,5.57
2022-07-25T09:21:46.457Z,6.47
2022-07-25T09:24:16.779Z,6.27
2022-07-25T09:26:50.118Z,5.97
2022-07-25T09:29:20.998Z,6.47
2022-07-25T09:31:48.707Z,6.33
2022-07-25T09:34:38.957Z,6.40
2022-07-25T09:37:12.732Z,6.17
2022-07-25T09:39:47.003Z,5.77
2022-07-25T09:42:32.599Z,5.80
2022-07-25T09:45:05.282Z,5.50
2022-07-25T09:47:35.602Z,5.83
2022-07-25T09:50:04.650Z,5.93
2022-07-25T09:52:33.992Z,5.47
2022-07-25T09:55:04.049Z,5.17
2022-07-25T09:57:31.787Z,5.67
2022-07-25T10:00:01.028Z,5.97
2022-07-25T10:02:51.982Z,5.50
2022-07-25T10:05:59.134Z,5.93
2022-07-25T10:08:28.020Z,5.47
2022-07-25T10:10:56.105Z,5.17
2022-07-25T10:13:35.089Z,5.20
2022-07-25T10:16:19.167Z,5.07
2022-07-25T10:18:52.233Z,4.83
2022-07-25T10:21:28.998Z,5.07
2022-07-25T10:24:07.982Z,5.20
2022-07-25T10:26:39.733Z,5.03
2022-07-25T10:29:12.066Z,5.30
2022-07-25T10:31:51.066Z,5.10
2022-07-25T10:34:29.979Z,5.43
2022-07-25T10:36:57.826Z,5.13
2022-07-25T10:39:25.280Z,5.53
2022-07-25T10:41:54.737Z,5.53
2022-07-25T10:44:25.514Z,5.53
2022-07-25T10:47:07.312Z,5.47
2022-07-25T10:49:55.123Z,5.50
2022-07-25T10:52:32.067Z,5.53
2022-07-25T10:55:01.865Z,5.43
2022-07-25T10:57:32.253Z,5.47
2022-07-25T11:00:09.671Z,5.20
2022-07-25T11:02:37.501Z,5.10
2022-07-25T11:05:06.185Z,5.43
2022-07-25T11:07:39.344Z,4.73
2022-07-25T11:10:07.587Z,5.20
2022-07-25T11:12:35.439Z,5.03
2022-07-25T11:15:07.313Z,5.50
2022-07-25T11:17:35.422Z,5.23
2022-07-25T11:20:05.546Z,5.87
2022-07-25T11:22:34.754Z,5.17
2022-07-25T11:25:03.766Z,5.57
2022-07-25T11:27:34.143Z,5.50
2022-07-25T11:30:09.810Z,5.30
2022-07-25T11:32:43.955Z,5.43
2022-07-25T11:35:14.347Z,5.77
2022-07-25T11:37:44.437Z,5.70
2022-07-25T11:40:12.441Z,6.03
2022-07-25T11:42:42.136Z,5.60
2022-07-25T11:45:37.526Z,5.67
2022-07-25T11:48:08.356Z,6.13
2022-07-25T11:50:39.793Z,6.10
2022-07-25T11:53:09.374Z,6.37
2022-07-25T11:55:41.175Z,5.83
2022-07-25T11:58:10.077Z,6.33
2022-07-25T12:00:44.715Z,5.90
2022-07-25T12:03:19.976Z,5.83
2022-07-25T12:05:50.267Z,5.60
2022-07-25T12:08:23.506Z,5.70
2022-07-25T12:10:51.840Z,5.80
2022-07-25T12:13:31.144Z,6.10
2022-07-25T12:16:00.375Z,5.47
2022-07-25T12:18:28.425Z,5.77
2022-07-25T12:20:56.289Z,5.73
2022-07-25T12:23:23.785Z,5.30
2022-07-25T12:25:52.844Z,5.17
2022-07-25T12:28:20.681Z,5.47
2022-07-25T12:30:54.339Z,5.30
2022-07-25T12:33:25.043Z,5.03
2022-07-25T12:35:54.391Z,5.17
2022-07-25T12:38:22.183Z,4.97
2022-07-25T12:40:50.080Z,5.10
2022-07-25T12:43:18.346Z,5.30
2022-07-25T12:45:46.037Z,4.93
2022-07-25T12:48:18.067Z,5.30
2022-07-25T12:50:46.375Z,5.30
2022-07-25T12:53:14.437Z,5.33
2022-07-25T12:55:42.384Z,5.37
2022-07-25T12:58:10.657Z,5.93
2022-07-25T13:00:38.402Z,5.33
2022-07-25T13:03:07.294Z,5.70
2022-07-25T13:05:35.111Z,5.30
2022-07-25T13:08:05.518Z,5.67
2022-07-25T13:10:33.127Z,5.27
2022-07-25T13:13:01.374Z,5.17
2022-07-25T13:15:30.607Z,5.30
2022-07-25T13:17:58.186Z,5.43
2022-07-25T13:20:25.846Z,4.93
2022-07-25T13:22:53.503Z,4.67
2022-07-25T13:25:21.216Z,4.87
2022-07-25T13:27:49.413Z,5.33
2022-07-25T13:30:17.337Z,5.20
2022-07-25T13:32:45.106Z,4.90
2022-07-25T13:35:20.239Z,5.00
2022-07-25T13:37:48.544Z,5.40
2022-07-25T13:40:16.213Z,5.63
2022-07-25T13:42:44.146Z,5.40
2022-07-25T13:45:11.992Z,5.90
2022-07-25T13:47:39.821Z,5.20
2022-07-25T13:50:08.618Z,5.67
2022-07-25T13:52:36.417Z,5.80
2022-07-25T13:55:04.648Z,5.80
2022-07-25T13:57:34.721Z,5.40
2022-07-25T14:00:02.946Z,5.67
2022-07-25T14:02:33.047Z,5.90
2022-07-25T14:05:04.487Z,6.03
2022-07-25T14:07:32.300Z,5.80
2022-07-25T14:09:59.941Z,5.80
2022-07-25T14:12:27.605Z,5.67
2022-07-25T14:14:55.840Z,5.80
2022-07-25T14:17:28.246Z,6.23
2022-07-25T14:19:57.914Z,5.87
2022-07-25T14:22:25.814Z,5.50
2022-07-25T14:24:53.343Z,5.40
2022-07-25T14:27:21.203Z,5.43
2022-07-25T14:29:48.677Z,5.33
2022-07-25T14:32:16.221Z,5.20
2022-07-25T14:34:44.666Z,4.83
2022-07-25T14:37:12.283Z,4.90
2022-07-25T14:39:39.927Z,5.20
2022-07-25T14:42:09.681Z,5.07
2022-07-25T14:44:38.071Z,5.33
2022-07-25T14:47:12.099Z,5.00
2022-07-25T14:49:41.243Z,5.53
2022-07-25T14:52:08.707Z,5.30
2022-07-25T14:54:36.246Z,4.83
2022-07-25T14:57:04.467Z,5.07
2022-07-25T14:59:32.198Z,5.37
2022-07-25T15:01:59.806Z,5.60
2022-07-25T15:04:28.241Z,5.13
2022-07-25T15:06:56.035Z,4.90
2022-07-25T15:09:23.577Z,5.17
2022-07-25T15:11:51.515Z,4.90
2022-07-25T15:14:19.592Z,5.03
2022-07-25T15:16:47.116Z,4.83
2022-07-25T15:19:26.091Z,4.20
2022-07-25T15:21:53.955Z,4.43
2022-07-25T15:24:25.707Z,4.50
2022-07-25T15:26:58.458Z,4.30
2022-07-25T15:29:26.025Z,4.00
2022-07-25T15:31:53.659Z,4.70
2022-07-25T15:34:21.288Z,4.43
2022-07-25T15:36:48.883Z,3.73
2022-07-25T15:39:16.347Z,3.60
2022-07-25T15:41:44.177Z,3.43
2022-07-25T15:44:11.837Z,3.70
2022-07-25T15:46:40.583Z,3.50
2022-07-25T15:49:09.167Z,3.30
2022-07-25T15:51:39.312Z,3.40
2022-07-25T15:54:07.215Z,3.60
2022-07-25T15:56:35.330Z,3.57
2022-07-25T15:59:02.899Z,3.00
2022-07-25T16:01:30.512Z,3.13
2022-07-25T16:04:00.209Z,2.73
2022-07-25T16:06:29.322Z,2.70
2022-07-25T16:08:57.102Z,2.40
2022-07-25T16:11:24.984Z,2.70
2022-07-25T16:13:54.376Z,2.73
2022-07-25T16:16:22.384Z,2.57
2022-07-25T16:18:49.925Z,2.30
2022-07-25T16:21:17.558Z,2.40
2022-07-25T16:23:45.745Z,2.50
2022-07-25T16:26:13.847Z,2.70
2022-07-25T16:28:41.937Z,2.30
2022-07-25T16:31:09.672Z,2.10
2022-07-25T16:33:38.263Z,1.80
2022-07-25T16:36:06.441Z,1.93
2022-07-25T16:38:34.053Z,2.00
2022-07-25T16:41:02.234Z,2.03
2022-07-25T16:43:29.801Z,1.93
2022-07-25T16:45:57.474Z,2.20
2022-07-25T16:48:25.464Z,1.90
2022-07-25T16:50:53.088Z,1.80
2022-07-25T16:53:20.959Z,1.53
2022-07-25T16:55:48.678Z,1.77
2022-07-25T16:58:17.268Z,1.70
2022-07-25T17:00:44.848Z,1.77
2022-07-25T17:03:12.415Z,1.80
2022-07-25T17:05:40.669Z,1.60
2022-07-25T17:08:08.443Z,1.50
2022-07-25T17:10:35.993Z,1.33
2022-07-25T17:13:04.002Z,1.60
2022-07-25T17:15:31.654Z,1.60
2022-07-25T17:17:59.890Z,1.73
2022-07-25T17:20:27.703Z,1.30
2022-07-25T17:22:55.545Z,1.77
2022-07-25T17:25:23.190Z,1.40
2022-07-25T17:27:50.796Z,1.50
2022-07-25T17:30:18.584Z,1.57
2022-07-25T17:32:46.182Z,2.00
2022-07-25T17:35:13.880Z,1.30
2022-07-25T17:37:43.291Z,1.70
2022-07-25T17:40:11.514Z,1.50
2022-07-25T17:42:44.715Z,1.30
2022-07-25T17:45:13.484Z,1.37
2022-07-25T17:47:43.717Z,1.23
2022-07-25T17:50:11.954Z,1.60
2022-07-25T17:52:39.537Z,1.47
2022-07-25T17:55:07.399Z,1.67
2022-07-25T17:57:36.406Z,1.40
2022-07-25T18:00:06.988Z,1.23
2022-07-25T18:02:39.713Z,1.43
2022-07-25T18:05:07.457Z,1.30
2022-07-25T18:07:34.774Z,1.40
2022-07-25T18:10:04.214Z,1.17
2022-07-25T18:12:32.268Z,1.40
2022-07-25T18:14:59.764Z,1.13
2022-07-25T18:17:27.830Z,1.70
2022-07-25T18:19:59.341Z,1.40
2022-07-25T18:22:27.637Z,1.40
2022-07-25T18:24:55.287Z,1.00
2022-07-25T18:27:23.473Z,1.27
2022-07-25T18:29:51.046Z,1.13
2022-07-25T18:32:21.925Z,1.10
2022-07-25T18:34:50.514Z,0.97
2022-07-25T18:37:18.182Z,1.20
2022-07-25T18:39:46.110Z,0.83
2022-07-25T18:42:14.167Z,1.20
2022-07-25T18:44:44.052Z,0.70
2022-07-25T18:47:15.424Z,0.90
2022-07-25T18:49:47.308Z,0.90
2022-07-25T18:52:15.792Z,0.80
2022-07-25T18:54:43.439Z,1.00
2022-07-25T18:57:11.458Z,1.00
2022-07-25T18:59:39.318Z,0.77
2022-07-25T19:02:06.860Z,0.80
2022-07-25T19:04:34.524Z,0.90
2022-07-25T19:07:03.364Z,0.77
2022-07-25T19:09:31.020Z,0.87
2022-07-25T19:11:58.968Z,0.80
2022-07-25T19:14:27.664Z,0.90
2022-07-25T19:16:55.613Z,0.90
2022-07-25T19:19:23.648Z,0.70
2022-07-25T19:21:51.255Z,1.10
2022-07-25T19:24:34.406Z,0.90
2022-07-25T19:27:12.962Z,0.97
2022-07-25T19:29:45.745Z,1.00
2022-07-25T19:32:18.166Z,1.40
2022-07-25T19:34:46.642Z,1.00
2022-07-25T19:37:14.195Z,1.00
2022-07-25T19:39:44.001Z,1.17
2022-07-25T19:42:12.588Z,1.20
2022-07-25T19:44:40.283Z,0.97
2022-07-25T19:47:11.619Z,1.03
2022-07-25T19:49:40.792Z,1.10
2022-07-25T19:52:09.343Z,1.20
2022-07-25T19:54:38.405Z,0.97
2022-07-25T19:57:06.559Z,1.20
2022-07-25T19:59:34.115Z,1.00
2022-07-25T20:02:05.114Z,1.10
2022-07-25T20:04:33.532Z,1.03
2022-07-25T22:10:37.205Z,1.20
2022-07-25T22:13:07.515Z,1.30
2022-07-25T22:15:34.998Z,1.33
2022-07-25T22:18:02.830Z,1.20
2022-07-25T22:20:30.394Z,1.33
2022-07-25T22:22:57.866Z,1.40
2022-07-25T22:25:25.527Z,1.40
2022-07-25T22:27:53.026Z,1.40
2022-07-25T22:30:21.981Z,1.13
2022-07-25T22:32:50.100Z,1.20
2022-07-25T22:35:21.051Z,1.20
2022-07-25T22:37:48.745Z,1.20
2022-07-25T22:40:16.252Z,1.10
2022-07-25T22:42:43.547Z,1.20
2022-07-25T22:45:12.362Z,1.37
2022-07-25T22:47:40.278Z,1.40
2022-07-25T22:50:08.840Z,1.27
2022-07-25T22:52:38.755Z,1.10
2022-07-25T22:55:06.620Z,1.20
2022-07-25T22:57:36.780Z,1.23
2022-07-25T23:00:10.170Z,1.10
2022-07-25T23:02:40.132Z,1.23
2022-07-25T23:05:08.947Z,1.30
2022-07-25T23:07:36.588Z,1.00
2022-07-25T23:10:05.931Z,1.20
2022-07-25T23:12:33.161Z,1.30
2022-07-25T23:15:00.692Z,1.53
2022-07-25T23:17:28.264Z,1.30
2022-07-25T23:19:56.697Z,1.50
2022-07-25T23:22:26.161Z,1.40
2022-07-25T23:24:53.537Z,1.20
2022-07-25T23:27:20.836Z,1.37
2022-07-25T23:29:48.354Z,1.30
2022-07-25T23:32:15.843Z,1.23
2022-07-25T23:34:43.757Z,1.53
2022-07-25T23:37:11.233Z,1.20
2022-07-25T23:39:38.698Z,1.20
2022-07-25T23:42:05.978Z,1.23
2022-07-25T23:44:33.411Z,1.40
2022-07-25T23:47:04.305Z,1.30
2022-07-25T23:49:35.734Z,1.40
2022-07-25T23:52:03.082Z,1.20
2022-07-25T23:54:30.510Z,1.30
2022-07-25T23:56:57.732Z,1.30
2022-07-25T23:59:25.217Z,1.23
